sensor_id;sensor_type;location;lat;lon;timestamp;P1;durP1;ratioP1;P2;durP2;ratioP2
80586;SDS011;69943;20.850;106.728;2023-12-20T00:01:44;6.50;;;4.00;;
80586;SDS011;69943;20.850;106.728;2023-12-20T00:04:16;5.40;;;4.40;;
80586;SDS011;69943;20.850;106.728;2023-12-20T00:06:48;4.70;;;4.20;;
80586;SDS011;69943;20.850;106.728;2023-12-20T00:09:20;5.00;;;4.30;;
80586;SDS011;69943;20.850;106.728;2023-12-20T00:11:52;6.30;;;4.30;;
80586;SDS011;69943;20.850;106.728;2023-12-20T00:14:24;5.50;;;4.00;;
80586;SDS011;69943;20.850;106.728;2023-12-20T00:16:56;5.10;;;4.00;;
80586;SDS011;69943;20.850;106.728;2023-12-20T00:19:28;4.90;;;4.10;;
80586;SDS011;69943;20.850;106.728;2023-12-20T00:22:00;6.20;;;4.20;;
80586;SDS011;69943;20.850;106.728;2023-12-20T00:24:32;7.00;;;4.20;;
80586;SDS011;69943;20.850;106.728;2023-12-20T00:27:04;6.00;;;4.10;;
80586;SDS011;69943;20.850;106.728;2023-12-20T00:29:36;5.40;;;4.30;;
80586;SDS011;69943;20.850;106.728;2023-12-20T00:32:08;8.40;;;4.50;;
80586;SDS011;69943;20.850;106.728;2023-12-20T00:34:40;7.90;;;4.20;;
80586;SDS011;69943;20.850;106.728;2023-12-20T00:37:12;6.90;;;4.80;;
80586;SDS011;69943;20.850;106.728;2023-12-20T00:39:44;5.70;;;3.90;;
80586;SDS011;69943;20.850;106.728;2023-12-20T00:42:16;7.40;;;4.00;;
80586;SDS011;69943;20.850;106.728;2023-12-20T00:44:48;8.60;;;4.10;;
80586;SDS011;69943;20.850;106.728;2023-12-20T00:47:22;5.00;;;3.70;;
80586;SDS011;69943;20.850;106.728;2023-12-20T00:49:54;7.70;;;4.40;;
80586;SDS011;69943;20.850;106.728;2023-12-20T00:52:26;6.40;;;4.20;;
80586;SDS011;69943;20.850;106.728;2023-12-20T00:54:59;7.70;;;3.90;;
80586;SDS011;69943;20.850;106.728;2023-12-20T00:57:31;5.90;;;3.60;;
80586;SDS011;69943;20.850;106.728;2023-12-20T01:00:03;8.50;;;4.20;;
80586;SDS011;69943;20.850;106.728;2023-12-20T01:02:35;8.00;;;4.30;;
80586;SDS011;69943;20.850;106.728;2023-12-20T01:05:07;8.80;;;4.50;;
80586;SDS011;69943;20.850;106.728;2023-12-20T01:07:40;9.60;;;3.90;;
80586;SDS011;69943;20.850;106.728;2023-12-20T01:10:12;10.50;;;4.80;;
80586;SDS011;69943;20.850;106.728;2023-12-20T01:12:44;14.50;;;4.10;;
80586;SDS011;69943;20.850;106.728;2023-12-20T01:15:16;16.20;;;4.30;;
80586;SDS011;69943;20.850;106.728;2023-12-20T01:17:48;10.30;;;4.50;;
80586;SDS011;69943;20.850;106.728;2023-12-20T01:20:20;12.90;;;4.10;;
80586;SDS011;69943;20.850;106.728;2023-12-20T01:22:52;9.20;;;4.50;;
80586;SDS011;69943;20.850;106.728;2023-12-20T01:25:24;8.20;;;4.20;;
80586;SDS011;69943;20.850;106.728;2023-12-20T01:27:56;7.70;;;3.80;;
80586;SDS011;69943;20.850;106.728;2023-12-20T01:30:28;10.00;;;3.80;;
80586;SDS011;69943;20.850;106.728;2023-12-20T01:33:00;9.30;;;4.70;;
80586;SDS011;69943;20.850;106.728;2023-12-20T01:35:32;9.00;;;4.10;;
80586;SDS011;69943;20.850;106.728;2023-12-20T01:38:04;9.40;;;4.50;;
80586;SDS011;69943;20.850;106.728;2023-12-20T01:40:37;8.70;;;4.70;;
80586;SDS011;69943;20.850;106.728;2023-12-20T01:43:09;8.00;;;4.30;;
80586;SDS011;69943;20.850;106.728;2023-12-20T01:45:43;9.70;;;5.40;;
80586;SDS011;69943;20.850;106.728;2023-12-20T01:48:14;6.20;;;4.20;;
80586;SDS011;69943;20.850;106.728;2023-12-20T01:50:47;7.20;;;4.30;;
80586;SDS011;69943;20.850;106.728;2023-12-20T01:53:20;11.20;;;4.90;;
80586;SDS011;69943;20.850;106.728;2023-12-20T01:55:54;11.50;;;5.10;;
80586;SDS011;69943;20.850;106.728;2023-12-20T01:58:26;7.20;;;4.20;;
80586;SDS011;69943;20.850;106.728;2023-12-20T02:00:59;11.90;;;5.00;;
80586;SDS011;69943;20.850;106.728;2023-12-20T02:03:31;8.20;;;4.00;;
80586;SDS011;69943;20.850;106.728;2023-12-20T02:06:03;8.40;;;5.20;;
80586;SDS011;69943;20.850;106.728;2023-12-20T02:08:35;6.30;;;4.40;;
80586;SDS011;69943;20.850;106.728;2023-12-20T02:11:08;7.80;;;4.40;;
80586;SDS011;69943;20.850;106.728;2023-12-20T02:13:39;11.10;;;4.80;;
80586;SDS011;69943;20.850;106.728;2023-12-20T02:16:11;13.80;;;4.60;;
80586;SDS011;69943;20.850;106.728;2023-12-20T02:18:43;5.80;;;3.90;;
80586;SDS011;69943;20.850;106.728;2023-12-20T02:21:15;6.90;;;4.00;;
80586;SDS011;69943;20.850;106.728;2023-12-20T02:23:47;6.80;;;4.30;;
80586;SDS011;69943;20.850;106.728;2023-12-20T02:26:19;9.60;;;4.20;;
80586;SDS011;69943;20.850;106.728;2023-12-20T02:28:51;6.90;;;4.30;;
80586;SDS011;69943;20.850;106.728;2023-12-20T02:31:23;6.50;;;4.20;;
80586;SDS011;69943;20.850;106.728;2023-12-20T02:33:55;9.80;;;4.50;;
80586;SDS011;69943;20.850;106.728;2023-12-20T02:36:27;6.40;;;4.40;;
80586;SDS011;69943;20.850;106.728;2023-12-20T02:38:59;7.70;;;4.30;;
80586;SDS011;69943;20.850;106.728;2023-12-20T02:41:31;7.70;;;4.30;;
80586;SDS011;69943;20.850;106.728;2023-12-20T02:44:03;9.10;;;5.40;;
80586;SDS011;69943;20.850;106.728;2023-12-20T02:46:34;7.00;;;4.50;;
80586;SDS011;69943;20.850;106.728;2023-12-20T02:49:07;6.80;;;4.70;;
80586;SDS011;69943;20.850;106.728;2023-12-20T02:51:39;7.60;;;4.00;;
80586;SDS011;69943;20.850;106.728;2023-12-20T02:54:11;5.80;;;4.20;;
80586;SDS011;69943;20.850;106.728;2023-12-20T02:56:43;7.30;;;5.00;;
80586;SDS011;69943;20.850;106.728;2023-12-20T02:59:15;5.70;;;4.00;;
80586;SDS011;69943;20.850;106.728;2023-12-20T03:01:47;5.60;;;4.30;;
80586;SDS011;69943;20.850;106.728;2023-12-20T03:04:19;5.90;;;4.10;;
80586;SDS011;69943;20.850;106.728;2023-12-20T03:06:52;7.10;;;4.50;;
80586;SDS011;69943;20.850;106.728;2023-12-20T03:09:23;10.30;;;4.10;;
80586;SDS011;69943;20.850;106.728;2023-12-20T03:11:56;9.30;;;5.30;;
80586;SDS011;69943;20.850;106.728;2023-12-20T03:14:28;7.80;;;4.40;;
80586;SDS011;69943;20.850;106.728;2023-12-20T03:17:00;8.00;;;4.30;;
80586;SDS011;69943;20.850;106.728;2023-12-20T03:19:33;7.60;;;4.10;;
80586;SDS011;69943;20.850;106.728;2023-12-20T03:22:05;7.50;;;4.50;;
80586;SDS011;69943;20.850;106.728;2023-12-20T03:24:37;9.50;;;4.70;;
80586;SDS011;69943;20.850;106.728;2023-12-20T03:27:09;6.30;;;4.80;;
80586;SDS011;69943;20.850;106.728;2023-12-20T03:29:41;6.90;;;4.30;;
80586;SDS011;69943;20.850;106.728;2023-12-20T03:32:13;6.70;;;4.40;;
80586;SDS011;69943;20.850;106.728;2023-12-20T03:34:45;7.40;;;4.90;;
80586;SDS011;69943;20.850;106.728;2023-12-20T03:37:16;6.50;;;4.90;;
80586;SDS011;69943;20.850;106.728;2023-12-20T03:39:49;5.80;;;4.40;;
80586;SDS011;69943;20.850;106.728;2023-12-20T03:42:21;9.40;;;4.70;;
80586;SDS011;69943;20.850;106.728;2023-12-20T03:44:53;7.40;;;4.50;;
80586;SDS011;69943;20.850;106.728;2023-12-20T03:47:24;8.40;;;4.80;;
80586;SDS011;69943;20.850;106.728;2023-12-20T03:49:56;7.30;;;4.20;;
80586;SDS011;69943;20.850;106.728;2023-12-20T03:52:28;7.10;;;4.80;;
80586;SDS011;69943;20.850;106.728;2023-12-20T03:55:00;7.40;;;4.40;;
80586;SDS011;69943;20.850;106.728;2023-12-20T03:57:33;7.40;;;4.80;;
80586;SDS011;69943;20.850;106.728;2023-12-20T04:00:06;8.60;;;4.90;;
80586;SDS011;69943;20.850;106.728;2023-12-20T04:02:42;10.00;;;5.30;;
80586;SDS011;69943;20.850;106.728;2023-12-20T04:05:14;9.90;;;6.00;;
80586;SDS011;69943;20.850;106.728;2023-12-20T04:07:46;14.20;;;4.90;;
80586;SDS011;69943;20.850;106.728;2023-12-20T04:10:20;11.30;;;5.10;;
80586;SDS011;69943;20.850;106.728;2023-12-20T04:12:53;9.70;;;4.70;;
80586;SDS011;69943;20.850;106.728;2023-12-20T04:15:26;9.10;;;4.90;;
80586;SDS011;69943;20.850;106.728;2023-12-20T04:17:58;6.40;;;4.20;;
80586;SDS011;69943;20.850;106.728;2023-12-20T04:20:30;8.80;;;5.00;;
80586;SDS011;69943;20.850;106.728;2023-12-20T04:23:02;6.60;;;4.40;;
80586;SDS011;69943;20.850;106.728;2023-12-20T04:25:33;9.20;;;4.60;;
80586;SDS011;69943;20.850;106.728;2023-12-20T04:28:06;9.90;;;4.50;;
80586;SDS011;69943;20.850;106.728;2023-12-20T04:30:38;5.60;;;4.50;;
80586;SDS011;69943;20.850;106.728;2023-12-20T04:33:10;9.60;;;5.10;;
80586;SDS011;69943;20.850;106.728;2023-12-20T04:35:42;6.30;;;4.30;;
80586;SDS011;69943;20.850;106.728;2023-12-20T04:38:16;7.20;;;4.90;;
80586;SDS011;69943;20.850;106.728;2023-12-20T04:40:48;6.90;;;4.60;;
80586;SDS011;69943;20.850;106.728;2023-12-20T04:43:21;9.70;;;4.90;;
80586;SDS011;69943;20.850;106.728;2023-12-20T04:45:54;6.90;;;4.50;;
80586;SDS011;69943;20.850;106.728;2023-12-20T04:48:27;7.50;;;4.60;;
80586;SDS011;69943;20.850;106.728;2023-12-20T04:50:59;7.70;;;5.00;;
80586;SDS011;69943;20.850;106.728;2023-12-20T04:53:31;6.20;;;4.90;;
80586;SDS011;69943;20.850;106.728;2023-12-20T04:56:03;8.70;;;4.30;;
80586;SDS011;69943;20.850;106.728;2023-12-20T04:58:36;7.50;;;5.00;;
80586;SDS011;69943;20.850;106.728;2023-12-20T05:01:08;7.50;;;5.40;;
80586;SDS011;69943;20.850;106.728;2023-12-20T05:03:40;8.60;;;4.60;;
80586;SDS011;69943;20.850;106.728;2023-12-20T05:06:12;6.30;;;4.60;;
80586;SDS011;69943;20.850;106.728;2023-12-20T05:08:44;6.90;;;5.30;;
80586;SDS011;69943;20.850;106.728;2023-12-20T05:11:16;9.10;;;5.50;;
80586;SDS011;69943;20.850;106.728;2023-12-20T05:13:48;9.10;;;5.50;;
80586;SDS011;69943;20.850;106.728;2023-12-20T05:16:20;9.50;;;6.20;;
80586;SDS011;69943;20.850;106.728;2023-12-20T05:18:52;7.70;;;5.30;;
80586;SDS011;69943;20.850;106.728;2023-12-20T05:21:24;13.10;;;5.40;;
80586;SDS011;69943;20.850;106.728;2023-12-20T05:23:56;7.80;;;5.30;;
80586;SDS011;69943;20.850;106.728;2023-12-20T05:26:28;7.60;;;4.90;;
80586;SDS011;69943;20.850;106.728;2023-12-20T05:29:01;12.30;;;5.40;;
80586;SDS011;69943;20.850;106.728;2023-12-20T05:31:32;8.80;;;5.30;;
80586;SDS011;69943;20.850;106.728;2023-12-20T05:34:04;8.50;;;5.60;;
80586;SDS011;69943;20.850;106.728;2023-12-20T05:36:37;7.10;;;5.10;;
80586;SDS011;69943;20.850;106.728;2023-12-20T05:39:09;8.10;;;5.90;;
80586;SDS011;69943;20.850;106.728;2023-12-20T05:41:41;9.90;;;5.50;;
80586;SDS011;69943;20.850;106.728;2023-12-20T05:44:13;12.50;;;5.60;;
80586;SDS011;69943;20.850;106.728;2023-12-20T05:46:45;9.20;;;5.90;;
80586;SDS011;69943;20.850;106.728;2023-12-20T05:49:17;9.50;;;5.60;;
80586;SDS011;69943;20.850;106.728;2023-12-20T05:51:49;11.90;;;5.90;;
80586;SDS011;69943;20.850;106.728;2023-12-20T05:54:21;10.50;;;5.50;;
80586;SDS011;69943;20.850;106.728;2023-12-20T05:56:53;10.70;;;5.90;;
80586;SDS011;69943;20.850;106.728;2023-12-20T05:59:25;9.50;;;5.60;;
80586;SDS011;69943;20.850;106.728;2023-12-20T06:01:57;10.90;;;6.00;;
80586;SDS011;69943;20.850;106.728;2023-12-20T06:04:29;10.80;;;6.10;;
80586;SDS011;69943;20.850;106.728;2023-12-20T06:07:03;10.90;;;6.80;;
80586;SDS011;69943;20.850;106.728;2023-12-20T06:09:35;12.50;;;5.70;;
80586;SDS011;69943;20.850;106.728;2023-12-20T06:12:07;11.70;;;6.20;;
80586;SDS011;69943;20.850;106.728;2023-12-20T06:14:40;10.90;;;6.10;;
80586;SDS011;69943;20.850;106.728;2023-12-20T06:17:11;10.20;;;6.40;;
80586;SDS011;69943;20.850;106.728;2023-12-20T06:19:43;13.10;;;6.20;;
80586;SDS011;69943;20.850;106.728;2023-12-20T06:22:18;11.60;;;5.80;;
80586;SDS011;69943;20.850;106.728;2023-12-20T06:24:50;11.10;;;5.70;;
80586;SDS011;69943;20.850;106.728;2023-12-20T06:27:22;13.30;;;6.10;;
80586;SDS011;69943;20.850;106.728;2023-12-20T06:29:54;10.70;;;6.30;;
80586;SDS011;69943;20.850;106.728;2023-12-20T06:32:26;14.90;;;7.60;;
80586;SDS011;69943;20.850;106.728;2023-12-20T06:34:59;11.20;;;6.80;;
80586;SDS011;69943;20.850;106.728;2023-12-20T06:37:33;9.50;;;6.10;;
80586;SDS011;69943;20.850;106.728;2023-12-20T06:40:05;10.10;;;6.30;;
80586;SDS011;69943;20.850;106.728;2023-12-20T06:42:38;12.30;;;6.30;;
80586;SDS011;69943;20.850;106.728;2023-12-20T06:45:10;9.70;;;6.00;;
80586;SDS011;69943;20.850;106.728;2023-12-20T06:47:43;9.90;;;6.40;;
80586;SDS011;69943;20.850;106.728;2023-12-20T06:50:15;10.50;;;6.90;;
80586;SDS011;69943;20.850;106.728;2023-12-20T06:52:47;15.50;;;6.90;;
80586;SDS011;69943;20.850;106.728;2023-12-20T06:55:19;11.60;;;6.90;;
80586;SDS011;69943;20.850;106.728;2023-12-20T06:57:51;9.50;;;6.00;;
80586;SDS011;69943;20.850;106.728;2023-12-20T07:00:23;9.30;;;6.30;;
80586;SDS011;69943;20.850;106.728;2023-12-20T07:02:55;10.60;;;6.40;;
80586;SDS011;69943;20.850;106.728;2023-12-20T07:05:27;13.30;;;6.60;;
80586;SDS011;69943;20.850;106.728;2023-12-20T07:07:59;11.90;;;6.30;;
80586;SDS011;69943;20.850;106.728;2023-12-20T07:10:31;9.10;;;6.40;;
80586;SDS011;69943;20.850;106.728;2023-12-20T07:13:04;11.70;;;6.90;;
80586;SDS011;69943;20.850;106.728;2023-12-20T07:15:37;10.20;;;6.90;;
80586;SDS011;69943;20.850;106.728;2023-12-20T07:18:09;9.20;;;5.70;;
80586;SDS011;69943;20.850;106.728;2023-12-20T07:20:41;12.70;;;6.50;;
80586;SDS011;69943;20.850;106.728;2023-12-20T07:23:13;11.60;;;6.90;;
80586;SDS011;69943;20.850;106.728;2023-12-20T07:25:45;14.20;;;6.60;;
80586;SDS011;69943;20.850;106.728;2023-12-20T07:28:17;7.40;;;6.00;;
80586;SDS011;69943;20.850;106.728;2023-12-20T07:30:49;8.50;;;6.00;;
80586;SDS011;69943;20.850;106.728;2023-12-20T07:33:21;11.30;;;6.50;;
80586;SDS011;69943;20.850;106.728;2023-12-20T07:35:53;9.00;;;6.00;;
80586;SDS011;69943;20.850;106.728;2023-12-20T07:38:25;11.10;;;6.40;;
80586;SDS011;69943;20.850;106.728;2023-12-20T07:40:57;13.30;;;6.40;;
80586;SDS011;69943;20.850;106.728;2023-12-20T07:43:29;12.30;;;7.60;;
80586;SDS011;69943;20.850;106.728;2023-12-20T07:46:05;13.10;;;7.70;;
80586;SDS011;69943;20.850;106.728;2023-12-20T07:51:09;10.50;;;7.40;;
80586;SDS011;69943;20.850;106.728;2023-12-20T07:53:41;10.00;;;7.40;;
80586;SDS011;69943;20.850;106.728;2023-12-20T07:56:17;13.90;;;8.00;;
80586;SDS011;69943;20.850;106.728;2023-12-20T07:58:49;11.70;;;7.70;;
80586;SDS011;69943;20.850;106.728;2023-12-20T08:01:22;11.20;;;8.30;;
80586;SDS011;69943;20.850;106.728;2023-12-20T08:03:54;12.50;;;7.80;;
80586;SDS011;69943;20.850;106.728;2023-12-20T08:06:26;12.00;;;8.40;;
80586;SDS011;69943;20.850;106.728;2023-12-20T08:08:58;10.20;;;7.70;;
80586;SDS011;69943;20.850;106.728;2023-12-20T08:11:30;12.50;;;8.90;;
80586;SDS011;69943;20.850;106.728;2023-12-20T08:14:02;11.80;;;8.60;;
80586;SDS011;69943;20.850;106.728;2023-12-20T08:16:34;15.40;;;8.70;;
80586;SDS011;69943;20.850;106.728;2023-12-20T08:19:06;13.30;;;10.30;;
80586;SDS011;69943;20.850;106.728;2023-12-20T08:21:38;15.60;;;10.10;;
80586;SDS011;69943;20.850;106.728;2023-12-20T08:24:10;15.10;;;10.90;;
80586;SDS011;69943;20.850;106.728;2023-12-20T08:26:42;17.70;;;12.00;;
80586;SDS011;69943;20.850;106.728;2023-12-20T08:29:13;14.40;;;11.00;;
80586;SDS011;69943;20.850;106.728;2023-12-20T08:31:45;21.90;;;11.70;;
80586;SDS011;69943;20.850;106.728;2023-12-20T08:34:17;21.60;;;11.50;;
80586;SDS011;69943;20.850;106.728;2023-12-20T08:36:52;23.20;;;11.80;;
80586;SDS011;69943;20.850;106.728;2023-12-20T08:39:24;20.60;;;11.20;;
80586;SDS011;69943;20.850;106.728;2023-12-20T08:41:56;16.10;;;11.80;;
80586;SDS011;69943;20.850;106.728;2023-12-20T08:44:28;17.50;;;11.60;;
80586;SDS011;69943;20.850;106.728;2023-12-20T08:47:01;20.70;;;11.10;;
80586;SDS011;69943;20.850;106.728;2023-12-20T08:49:33;13.30;;;10.00;;
80586;SDS011;69943;20.850;106.728;2023-12-20T08:52:05;16.90;;;11.60;;
80586;SDS011;69943;20.850;106.728;2023-12-20T08:54:37;14.90;;;10.90;;
80586;SDS011;69943;20.850;106.728;2023-12-20T08:57:09;18.60;;;10.50;;
80586;SDS011;69943;20.850;106.728;2023-12-20T08:59:42;16.40;;;10.30;;
80586;SDS011;69943;20.850;106.728;2023-12-20T09:02:14;13.90;;;9.80;;
80586;SDS011;69943;20.850;106.728;2023-12-20T09:04:46;14.40;;;9.80;;
80586;SDS011;69943;20.850;106.728;2023-12-20T09:07:24;17.80;;;10.60;;
80586;SDS011;69943;20.850;106.728;2023-12-20T09:09:57;14.10;;;10.30;;
80586;SDS011;69943;20.850;106.728;2023-12-20T09:12:29;13.00;;;10.10;;
80586;SDS011;69943;20.850;106.728;2023-12-20T09:15:01;15.70;;;10.20;;
80586;SDS011;69943;20.850;106.728;2023-12-20T09:17:33;14.10;;;10.00;;
80586;SDS011;69943;20.850;106.728;2023-12-20T09:20:06;15.80;;;10.30;;
80586;SDS011;69943;20.850;106.728;2023-12-20T09:22:39;14.30;;;9.80;;
80586;SDS011;69943;20.850;106.728;2023-12-20T09:25:12;16.20;;;10.90;;
80586;SDS011;69943;20.850;106.728;2023-12-20T09:27:46;12.70;;;9.60;;
80586;SDS011;69943;20.850;106.728;2023-12-20T09:30:19;13.80;;;9.40;;
80586;SDS011;69943;20.850;106.728;2023-12-20T09:32:51;12.20;;;9.50;;
80586;SDS011;69943;20.850;106.728;2023-12-20T09:35:23;14.50;;;9.80;;
80586;SDS011;69943;20.850;106.728;2023-12-20T09:37:56;14.60;;;10.40;;
80586;SDS011;69943;20.850;106.728;2023-12-20T09:40:28;15.30;;;10.50;;
80586;SDS011;69943;20.850;106.728;2023-12-20T09:43:03;11.90;;;9.40;;
80586;SDS011;69943;20.850;106.728;2023-12-20T09:45:36;15.10;;;10.00;;
80586;SDS011;69943;20.850;106.728;2023-12-20T09:48:08;14.20;;;10.10;;
80586;SDS011;69943;20.850;106.728;2023-12-20T09:50:42;19.10;;;9.60;;
80586;SDS011;69943;20.850;106.728;2023-12-20T09:53:15;13.00;;;9.70;;
80586;SDS011;69943;20.850;106.728;2023-12-20T09:55:47;12.20;;;9.50;;
80586;SDS011;69943;20.850;106.728;2023-12-20T09:58:20;13.40;;;9.10;;
80586;SDS011;69943;20.850;106.728;2023-12-20T10:00:52;13.30;;;10.20;;
80586;SDS011;69943;20.850;106.728;2023-12-20T10:03:25;13.20;;;9.60;;
80586;SDS011;69943;20.850;106.728;2023-12-20T10:05:57;11.60;;;9.00;;
80586;SDS011;69943;20.850;106.728;2023-12-20T10:08:29;16.00;;;10.10;;
80586;SDS011;69943;20.850;106.728;2023-12-20T10:11:02;13.40;;;8.80;;
80586;SDS011;69943;20.850;106.728;2023-12-20T10:13:38;14.40;;;9.80;;
80586;SDS011;69943;20.850;106.728;2023-12-20T10:16:11;13.10;;;8.90;;
80586;SDS011;69943;20.850;106.728;2023-12-20T10:18:44;15.20;;;9.80;;
80586;SDS011;69943;20.850;106.728;2023-12-20T10:21:17;16.50;;;9.00;;
80586;SDS011;69943;20.850;106.728;2023-12-20T10:23:49;14.10;;;9.90;;
80586;SDS011;69943;20.850;106.728;2023-12-20T10:26:22;12.90;;;9.10;;
80586;SDS011;69943;20.850;106.728;2023-12-20T10:29:01;13.60;;;9.40;;
80586;SDS011;69943;20.850;106.728;2023-12-20T10:31:35;15.70;;;10.20;;
80586;SDS011;69943;20.850;106.728;2023-12-20T10:34:09;13.70;;;10.70;;
80586;SDS011;69943;20.850;106.728;2023-12-20T10:36:41;14.90;;;10.50;;
80586;SDS011;69943;20.850;106.728;2023-12-20T10:39:13;16.50;;;11.30;;
80586;SDS011;69943;20.850;106.728;2023-12-20T10:41:46;19.50;;;11.40;;
80586;SDS011;69943;20.850;106.728;2023-12-20T10:44:19;17.30;;;11.10;;
80586;SDS011;69943;20.850;106.728;2023-12-20T10:46:51;16.10;;;10.80;;
80586;SDS011;69943;20.850;106.728;2023-12-20T10:49:28;16.10;;;10.80;;
80586;SDS011;69943;20.850;106.728;2023-12-20T10:52:01;14.80;;;10.40;;
80586;SDS011;69943;20.850;106.728;2023-12-20T10:54:34;14.60;;;10.80;;
80586;SDS011;69943;20.850;106.728;2023-12-20T10:57:07;15.20;;;10.90;;
80586;SDS011;69943;20.850;106.728;2023-12-20T10:59:39;16.20;;;10.80;;
80586;SDS011;69943;20.850;106.728;2023-12-20T11:02:11;14.70;;;10.40;;
80586;SDS011;69943;20.850;106.728;2023-12-20T11:04:48;14.10;;;9.90;;
80586;SDS011;69943;20.850;106.728;2023-12-20T11:07:36;15.20;;;10.90;;
80586;SDS011;69943;20.850;106.728;2023-12-20T11:15:40;15.20;;;10.20;;
80586;SDS011;69943;20.850;106.728;2023-12-20T11:18:12;14.50;;;10.90;;
80586;SDS011;69943;20.850;106.728;2023-12-20T11:20:44;12.80;;;10.20;;
80586;SDS011;69943;20.850;106.728;2023-12-20T11:23:16;16.10;;;11.00;;
80586;SDS011;69943;20.850;106.728;2023-12-20T11:25:51;13.60;;;9.50;;
80586;SDS011;69943;20.850;106.728;2023-12-20T11:28:26;14.00;;;10.20;;
80586;SDS011;69943;20.850;106.728;2023-12-20T11:31:01;15.10;;;9.80;;
80586;SDS011;69943;20.850;106.728;2023-12-20T11:33:36;15.10;;;9.00;;
80586;SDS011;69943;20.850;106.728;2023-12-20T11:36:18;13.60;;;10.70;;
80586;SDS011;69943;20.850;106.728;2023-12-20T11:38:57;14.60;;;10.70;;
80586;SDS011;69943;20.850;106.728;2023-12-20T11:41:30;14.80;;;11.10;;
80586;SDS011;69943;20.850;106.728;2023-12-20T11:44:04;12.40;;;9.70;;
80586;SDS011;69943;20.850;106.728;2023-12-20T11:46:36;15.30;;;10.50;;
80586;SDS011;69943;20.850;106.728;2023-12-20T11:49:08;12.80;;;9.80;;
80586;SDS011;69943;20.850;106.728;2023-12-20T11:51:43;13.70;;;10.00;;
80586;SDS011;69943;20.850;106.728;2023-12-20T11:54:15;13.00;;;10.30;;
80586;SDS011;69943;20.850;106.728;2023-12-20T11:56:47;13.20;;;10.00;;
80586;SDS011;69943;20.850;106.728;2023-12-20T11:59:19;14.50;;;10.50;;
80586;SDS011;69943;20.850;106.728;2023-12-20T12:01:51;15.20;;;9.60;;
80586;SDS011;69943;20.850;106.728;2023-12-20T12:04:25;16.10;;;10.60;;
80586;SDS011;69943;20.850;106.728;2023-12-20T12:06:58;11.80;;;9.90;;
80586;SDS011;69943;20.850;106.728;2023-12-20T12:09:30;12.10;;;9.20;;
80586;SDS011;69943;20.850;106.728;2023-12-20T12:12:03;12.80;;;9.10;;
80586;SDS011;69943;20.850;106.728;2023-12-20T12:14:35;14.00;;;9.80;;
80586;SDS011;69943;20.850;106.728;2023-12-20T12:17:11;12.30;;;8.70;;
80586;SDS011;69943;20.850;106.728;2023-12-20T12:22:15;14.30;;;8.60;;
80586;SDS011;69943;20.850;106.728;2023-12-20T12:24:48;12.80;;;9.30;;
80586;SDS011;69943;20.850;106.728;2023-12-20T12:27:20;11.70;;;8.80;;
80586;SDS011;69943;20.850;106.728;2023-12-20T12:30:02;13.00;;;9.60;;
80586;SDS011;69943;20.850;106.728;2023-12-20T12:32:34;13.70;;;9.50;;
80586;SDS011;69943;20.850;106.728;2023-12-20T12:35:07;12.80;;;9.20;;
80586;SDS011;69943;20.850;106.728;2023-12-20T12:37:40;13.30;;;9.20;;
80586;SDS011;69943;20.850;106.728;2023-12-20T12:40:13;12.00;;;8.80;;
80586;SDS011;69943;20.850;106.728;2023-12-20T12:42:45;10.70;;;8.10;;
80586;SDS011;69943;20.850;106.728;2023-12-20T12:45:18;12.20;;;8.10;;
80586;SDS011;69943;20.850;106.728;2023-12-20T12:47:51;14.50;;;8.60;;
80586;SDS011;69943;20.850;106.728;2023-12-20T12:50:25;13.00;;;8.60;;
80586;SDS011;69943;20.850;106.728;2023-12-20T12:52:59;12.20;;;9.00;;
80586;SDS011;69943;20.850;106.728;2023-12-20T12:55:31;11.50;;;8.60;;
80586;SDS011;69943;20.850;106.728;2023-12-20T12:58:03;12.20;;;8.40;;
80586;SDS011;69943;20.850;106.728;2023-12-20T13:00:36;12.00;;;8.60;;
80586;SDS011;69943;20.850;106.728;2023-12-20T13:03:08;11.40;;;8.30;;
80586;SDS011;69943;20.850;106.728;2023-12-20T13:05:40;12.50;;;9.00;;
80586;SDS011;69943;20.850;106.728;2023-12-20T13:08:12;12.00;;;8.40;;
80586;SDS011;69943;20.850;106.728;2023-12-20T13:10:45;12.00;;;8.20;;
80586;SDS011;69943;20.850;106.728;2023-12-20T13:13:16;16.30;;;9.10;;
80586;SDS011;69943;20.850;106.728;2023-12-20T13:15:48;10.50;;;7.90;;
80586;SDS011;69943;20.850;106.728;2023-12-20T13:18:23;12.50;;;8.40;;
80586;SDS011;69943;20.850;106.728;2023-12-20T13:20:55;12.30;;;8.70;;
80586;SDS011;69943;20.850;106.728;2023-12-20T13:23:27;11.60;;;8.60;;
80586;SDS011;69943;20.850;106.728;2023-12-20T13:25:59;13.40;;;9.40;;
80586;SDS011;69943;20.850;106.728;2023-12-20T13:28:31;14.40;;;9.90;;
80586;SDS011;69943;20.850;106.728;2023-12-20T13:31:03;17.90;;;8.90;;
80586;SDS011;69943;20.850;106.728;2023-12-20T13:33:35;13.10;;;9.20;;
80586;SDS011;69943;20.850;106.728;2023-12-20T13:36:07;14.10;;;9.50;;
80586;SDS011;69943;20.850;106.728;2023-12-20T13:38:39;13.70;;;9.50;;
80586;SDS011;69943;20.850;106.728;2023-12-20T13:41:11;11.60;;;8.50;;
80586;SDS011;69943;20.850;106.728;2023-12-20T13:43:43;14.20;;;10.30;;
80586;SDS011;69943;20.850;106.728;2023-12-20T13:46:16;13.90;;;9.70;;
80586;SDS011;69943;20.850;106.728;2023-12-20T13:48:48;14.00;;;9.30;;
80586;SDS011;69943;20.850;106.728;2023-12-20T13:51:20;15.00;;;10.00;;
80586;SDS011;69943;20.850;106.728;2023-12-20T13:53:52;18.70;;;10.00;;
80586;SDS011;69943;20.850;106.728;2023-12-20T13:56:24;14.30;;;9.40;;
80586;SDS011;69943;20.850;106.728;2023-12-20T13:58:56;13.40;;;9.40;;
80586;SDS011;69943;20.850;106.728;2023-12-20T14:01:28;15.20;;;9.80;;
80586;SDS011;69943;20.850;106.728;2023-12-20T14:04:00;13.00;;;9.50;;
80586;SDS011;69943;20.850;106.728;2023-12-20T14:06:33;11.50;;;8.70;;
80586;SDS011;69943;20.850;106.728;2023-12-20T14:09:04;10.80;;;8.70;;
80586;SDS011;69943;20.850;106.728;2023-12-20T14:11:36;14.20;;;9.80;;
80586;SDS011;69943;20.850;106.728;2023-12-20T14:14:11;14.90;;;9.60;;
80586;SDS011;69943;20.850;106.728;2023-12-20T14:16:43;13.10;;;9.50;;
80586;SDS011;69943;20.850;106.728;2023-12-20T14:19:15;12.50;;;8.50;;
80586;SDS011;69943;20.850;106.728;2023-12-20T14:21:48;11.90;;;7.70;;
80586;SDS011;69943;20.850;106.728;2023-12-20T14:24:20;13.90;;;9.20;;
80586;SDS011;69943;20.850;106.728;2023-12-20T14:26:52;12.20;;;9.00;;
80586;SDS011;69943;20.850;106.728;2023-12-20T14:29:24;14.70;;;8.90;;
80586;SDS011;69943;20.850;106.728;2023-12-20T14:31:56;11.90;;;8.70;;
80586;SDS011;69943;20.850;106.728;2023-12-20T14:34:28;11.10;;;8.50;;
80586;SDS011;69943;20.850;106.728;2023-12-20T14:37:00;10.50;;;8.50;;
80586;SDS011;69943;20.850;106.728;2023-12-20T14:39:35;12.20;;;8.50;;
80586;SDS011;69943;20.850;106.728;2023-12-20T14:42:12;12.80;;;9.00;;
80586;SDS011;69943;20.850;106.728;2023-12-20T14:44:44;11.20;;;8.10;;
80586;SDS011;69943;20.850;106.728;2023-12-20T14:47:16;11.30;;;8.40;;
80586;SDS011;69943;20.850;106.728;2023-12-20T14:49:48;11.60;;;7.80;;
80586;SDS011;69943;20.850;106.728;2023-12-20T14:52:20;13.20;;;8.40;;